sensor_id;sensor_type;location;lat;lon;timestamp;temperature;humidity
10070;DHT22;5074;53.720;10.014;2022-07-29T00:01:13;13.00;99.90
10070;DHT22;5074;53.720;10.014;2022-07-29T00:03:45;12.90;99.90
10070;DHT22;5074;53.720;10.014;2022-07-29T00:06:13;12.90;99.90
10070;DHT22;5074;53.720;10.014;2022-07-29T00:08:42;12.80;99.90
10070;DHT22;5074;53.720;10.014;2022-07-29T00:11:10;12.80;99.90
10070;DHT22;5074;53.720;10.014;2022-07-29T00:13:38;12.80;99.90
10070;DHT22;5074;53.720;10.014;2022-07-29T00:16:07;12.70;99.90
10070;DHT22;5074;53.720;10.014;2022-07-29T00:18:36;12.60;99.90
10070;DHT22;5074;53.720;10.014;2022-07-29T00:21:04;12.60;99.90
10070;DHT22;5074;53.720;10.014;2022-07-29T00:23:32;12.60;99.90
10070;DHT22;5074;53.720;10.014;2022-07-29T00:26:02;12.60;99.90
10070;DHT22;5074;53.720;10.014;2022-07-29T00:28:30;12.60;99.90
10070;DHT22;5074;53.720;10.014;2022-07-29T00:30:58;12.60;99.90
10070;DHT22;5074;53.720;10.014;2022-07-29T00:33:28;12.60;99.90
10070;DHT22;5074;53.720;10.014;2022-07-29T00:35:56;12.60;99.90
10070;DHT22;5074;53.720;10.014;2022-07-29T00:38:23;12.60;99.90
10070;DHT22;5074;53.720;10.014;2022-07-29T00:40:51;12.50;99.90
10070;DHT22;5074;53.720;10.014;2022-07-29T00:43:20;12.50;99.90
10070;DHT22;5074;53.720;10.014;2022-07-29T00:45:48;12.50;99.90
10070;DHT22;5074;53.720;10.014;2022-07-29T00:48:16;12.50;99.90
10070;DHT22;5074;53.720;10.014;2022-07-29T00:50:45;12.50;99.90
10070;DHT22;5074;53.720;10.014;2022-07-29T00:53:13;12.50;99.90
10070;DHT22;5074;53.720;10.014;2022-07-29T00:55:42;12.50;99.90
10070;DHT22;5074;53.720;10.014;2022-07-29T00:58:10;12.50;99.90
10070;DHT22;5074;53.720;10.014;2022-07-29T01:00:41;12.50;99.90
10070;DHT22;5074;53.720;10.014;2022-07-29T01:03:11;12.50;99.90
10070;DHT22;5074;53.720;10.014;2022-07-29T01:05:39;12.50;99.90
10070;DHT22;5074;53.720;10.014;2022-07-29T01:08:18;12.50;99.90
10070;DHT22;5074;53.720;10.014;2022-07-29T01:10:47;12.50;99.90
10070;DHT22;5074;53.720;10.014;2022-07-29T01:13:20;12.50;99.90
10070;DHT22;5074;53.720;10.014;2022-07-29T01:15:49;12.50;99.90
10070;DHT22;5074;53.720;10.014;2022-07-29T01:18:24;12.40;99.90
10070;DHT22;5074;53.720;10.014;2022-07-29T01:24:03;12.40;99.90
10070;DHT22;5074;53.720;10.014;2022-07-29T01:26:46;12.50;99.90
10070;DHT22;5074;53.720;10.014;2022-07-29T01:29:19;12.40;99.90
10070;DHT22;5074;53.720;10.014;2022-07-29T01:32:05;12.50;99.90
10070;DHT22;5074;53.720;10.014;2022-07-29T01:34:55;12.50;99.90
10070;DHT22;5074;53.720;10.014;2022-07-29T01:37:31;12.50;99.90
10070;DHT22;5074;53.720;10.014;2022-07-29T01:40:06;12.40;99.90
10070;DHT22;5074;53.720;10.014;2022-07-29T01:42:41;12.30;99.90
10070;DHT22;5074;53.720;10.014;2022-07-29T01:45:14;12.30;99.90
10070;DHT22;5074;53.720;10.014;2022-07-29T01:47:44;12.30;99.90
10070;DHT22;5074;53.720;10.014;2022-07-29T01:50:28;12.20;99.90
10070;DHT22;5074;53.720;10.014;2022-07-29T01:53:02;12.20;99.90
10070;DHT22;5074;53.720;10.014;2022-07-29T01:55:35;12.20;99.90
10070;DHT22;5074;53.720;10.014;2022-07-29T01:58:06;12.20;99.90
10070;DHT22;5074;53.720;10.014;2022-07-29T02:00:37;12.10;99.90
10070;DHT22;5074;53.720;10.014;2022-07-29T02:03:09;12.10;99.90
10070;DHT22;5074;53.720;10.014;2022-07-29T02:05:40;12.10;99.90
10070;DHT22;5074;53.720;10.014;2022-07-29T02:08:10;12.10;99.90
10070;DHT22;5074;53.720;10.014;2022-07-29T02:10:40;12.10;99.90
10070;DHT22;5074;53.720;10.014;2022-07-29T02:13:10;12.10;99.90
10070;DHT22;5074;53.720;10.014;2022-07-29T02:15:42;12.10;99.90
10070;DHT22;5074;53.720;10.014;2022-07-29T02:18:13;12.10;99.90
10070;DHT22;5074;53.720;10.014;2022-07-29T02:20:44;12.10;99.90
10070;DHT22;5074;53.720;10.014;2022-07-29T02:23:15;12.10;99.90
10070;DHT22;5074;53.720;10.014;2022-07-29T02:25:48;12.10;99.90
10070;DHT22;5074;53.720;10.014;2022-07-29T02:28:19;12.10;99.90
10070;DHT22;5074;53.720;10.014;2022-07-29T02:30:51;12.10;99.90
10070;DHT22;5074;53.720;10.014;2022-07-29T02:33:20;12.00;99.90
10070;DHT22;5074;53.720;10.014;2022-07-29T02:35:51;12.00;99.90
10070;DHT22;5074;53.720;10.014;2022-07-29T02:38:20;12.00;99.90
10070;DHT22;5074;53.720;10.014;2022-07-29T02:41:08;12.00;99.90
10070;DHT22;5074;53.720;10.014;2022-07-29T02:43:38;12.00;99.90
10070;DHT22;5074;53.720;10.014;2022-07-29T02:46:11;12.00;99.90
10070;DHT22;5074;53.720;10.014;2022-07-29T02:48:55;11.90;99.90
10070;DHT22;5074;53.720;10.014;2022-07-29T02:51:27;11.90;99.90
10070;DHT22;5074;53.720;10.014;2022-07-29T02:54:11;11.90;99.90
10070;DHT22;5074;53.720;10.014;2022-07-29T02:56:47;11.90;99.90
10070;DHT22;5074;53.720;10.014;2022-07-29T02:59:20;11.90;99.90
10070;DHT22;5074;53.720;10.014;2022-07-29T03:01:55;11.90;99.90
10070;DHT22;5074;53.720;10.014;2022-07-29T03:04:26;12.00;99.90
10070;DHT22;5074;53.720;10.014;2022-07-29T03:06:56;12.00;99.90
10070;DHT22;5074;53.720;10.014;2022-07-29T03:09:26;12.00;99.90
10070;DHT22;5074;53.720;10.014;2022-07-29T03:11:55;12.00;99.90
10070;DHT22;5074;53.720;10.014;2022-07-29T03:14:24;12.00;99.90
10070;DHT22;5074;53.720;10.014;2022-07-29T03:16:54;11.90;99.90
10070;DHT22;5074;53.720;10.014;2022-07-29T03:19:23;11.90;99.90
10070;DHT22;5074;53.720;10.014;2022-07-29T03:21:52;11.90;99.90
10070;DHT22;5074;53.720;10.014;2022-07-29T03:24:26;11.80;99.90
10070;DHT22;5074;53.720;10.014;2022-07-29T03:26:56;11.80;99.90
10070;DHT22;5074;53.720;10.014;2022-07-29T03:29:24;11.80;99.90
10070;DHT22;5074;53.720;10.014;2022-07-29T03:32:02;11.80;99.90
10070;DHT22;5074;53.720;10.014;2022-07-29T03:34:34;11.90;99.90
10070;DHT22;5074;53.720;10.014;2022-07-29T03:37:03;11.80;99.90
10070;DHT22;5074;53.720;10.014;2022-07-29T03:39:33;11.80;99.90
10070;DHT22;5074;53.720;10.014;2022-07-29T03:42:04;11.80;99.90
10070;DHT22;5074;53.720;10.014;2022-07-29T03:44:36;11.80;99.90
10070;DHT22;5074;53.720;10.014;2022-07-29T03:47:06;11.70;99.90
10070;DHT22;5074;53.720;10.014;2022-07-29T03:49:37;11.70;99.90
10070;DHT22;5074;53.720;10.014;2022-07-29T03:52:07;11.80;99.90
10070;DHT22;5074;53.720;10.014;2022-07-29T03:54:36;11.80;99.90
10070;DHT22;5074;53.720;10.014;2022-07-29T03:57:04;11.80;99.90
10070;DHT22;5074;53.720;10.014;2022-07-29T03:59:34;11.70;99.90
10070;DHT22;5074;53.720;10.014;2022-07-29T04:02:04;11.70;99.90
10070;DHT22;5074;53.720;10.014;2022-07-29T04:04:36;11.70;99.90
10070;DHT22;5074;53.720;10.014;2022-07-29T04:07:05;11.70;99.90
10070;DHT22;5074;53.720;10.014;2022-07-29T04:09:33;11.70;99.90
10070;DHT22;5074;53.720;10.014;2022-07-29T04:12:01;11.70;99.90
10070;DHT22;5074;53.720;10.014;2022-07-29T04:14:30;11.70;99.90
10070;DHT22;5074;53.720;10.014;2022-07-29T04:16:59;11.70;99.90
10070;DHT22;5074;53.720;10.014;2022-07-29T04:19:28;11.70;99.90
10070;DHT22;5074;53.720;10.014;2022-07-29T04:21:57;11.70;99.90
10070;DHT22;5074;53.720;10.014;2022-07-29T04:24:26;11.70;99.90
10070;DHT22;5074;53.720;10.014;2022-07-29T04:26:54;11.80;99.90
10070;DHT22;5074;53.720;10.014;2022-07-29T04:29:22;11.80;99.90
10070;DHT22;5074;53.720;10.014;2022-07-29T04:31:51;11.90;99.90
10070;DHT22;5074;53.720;10.014;2022-07-29T04:34:19;11.90;99.90
10070;DHT22;5074;53.720;10.014;2022-07-29T04:36:48;12.00;99.90
10070;DHT22;5074;53.720;10.014;2022-07-29T04:39:16;12.20;99.90
10070;DHT22;5074;53.720;10.014;2022-07-29T04:41:48;12.30;99.90
10070;DHT22;5074;53.720;10.014;2022-07-29T04:44:20;12.50;99.90
10070;DHT22;5074;53.720;10.014;2022-07-29T04:46:54;12.50;99.90
10070;DHT22;5074;53.720;10.014;2022-07-29T04:49:22;12.70;99.90
10070;DHT22;5074;53.720;10.014;2022-07-29T04:51:51;12.70;99.90
10070;DHT22;5074;53.720;10.014;2022-07-29T04:54:19;12.80;99.90
10070;DHT22;5074;53.720;10.014;2022-07-29T04:56:47;12.70;99.90
10070;DHT22;5074;53.720;10.014;2022-07-29T04:59:15;12.50;99.90
10070;DHT22;5074;53.720;10.014;2022-07-29T05:01:43;12.50;99.90
10070;DHT22;5074;53.720;10.014;2022-07-29T05:04:12;12.50;99.90
10070;DHT22;5074;53.720;10.014;2022-07-29T05:06:40;12.50;99.90
10070;DHT22;5074;53.720;10.014;2022-07-29T05:09:09;12.50;99.90
10070;DHT22;5074;53.720;10.014;2022-07-29T05:11:38;12.50;99.90
10070;DHT22;5074;53.720;10.014;2022-07-29T05:14:06;12.50;99.90
10070;DHT22;5074;53.720;10.014;2022-07-29T05:16:34;12.50;99.90
10070;DHT22;5074;53.720;10.014;2022-07-29T05:19:02;12.50;99.90
10070;DHT22;5074;53.720;10.014;2022-07-29T05:21:30;12.60;99.90
10070;DHT22;5074;53.720;10.014;2022-07-29T05:23:58;12.60;99.90
10070;DHT22;5074;53.720;10.014;2022-07-29T05:26:27;12.70;99.90
10070;DHT22;5074;53.720;10.014;2022-07-29T05:28:55;12.70;99.90
10070;DHT22;5074;53.720;10.014;2022-07-29T05:31:23;12.70;99.90
10070;DHT22;5074;53.720;10.014;2022-07-29T05:33:52;12.80;99.90
10070;DHT22;5074;53.720;10.014;2022-07-29T05:36:20;12.80;99.90
10070;DHT22;5074;53.720;10.014;2022-07-29T05:38:48;12.80;99.90
10070;DHT22;5074;53.720;10.014;2022-07-29T05:41:17;12.90;99.90
10070;DHT22;5074;53.720;10.014;2022-07-29T05:43:46;12.90;99.90
10070;DHT22;5074;53.720;10.014;2022-07-29T05:46:14;13.00;99.90
10070;DHT22;5074;53.720;10.014;2022-07-29T05:48:43;13.00;99.90
10070;DHT22;5074;53.720;10.014;2022-07-29T05:51:11;13.10;99.90
10070;DHT22;5074;53.720;10.014;2022-07-29T05:53:39;13.20;99.90
10070;DHT22;5074;53.720;10.014;2022-07-29T05:56:07;13.30;99.90
10070;DHT22;5074;53.720;10.014;2022-07-29T05:58:35;13.40;99.90
10070;DHT22;5074;53.720;10.014;2022-07-29T06:01:04;13.50;99.90
10070;DHT22;5074;53.720;10.014;2022-07-29T06:03:33;13.60;99.90
10070;DHT22;5074;53.720;10.014;2022-07-29T06:06:01;13.80;99.90
10070;DHT22;5074;53.720;10.014;2022-07-29T06:08:29;13.90;99.90
10070;DHT22;5074;53.720;10.014;2022-07-29T06:10:57;13.90;99.90
10070;DHT22;5074;53.720;10.014;2022-07-29T06:13:25;14.00;99.90
10070;DHT22;5074;53.720;10.014;2022-07-29T06:15:53;14.10;99.90
10070;DHT22;5074;53.720;10.014;2022-07-29T06:18:23;14.20;99.90
10070;DHT22;5074;53.720;10.014;2022-07-29T06:20:51;14.30;99.90
10070;DHT22;5074;53.720;10.014;2022-07-29T06:23:19;14.30;99.90
10070;DHT22;5074;53.720;10.014;2022-07-29T06:25:48;14.30;99.90
10070;DHT22;5074;53.720;10.014;2022-07-29T06:28:16;14.40;99.90
10070;DHT22;5074;53.720;10.014;2022-07-29T06:30:44;14.50;99.90
10070;DHT22;5074;53.720;10.014;2022-07-29T06:33:16;14.70;99.90
10070;DHT22;5074;53.720;10.014;2022-07-29T06:35:46;14.80;99.90
10070;DHT22;5074;53.720;10.014;2022-07-29T06:38:20;14.90;99.90
10070;DHT22;5074;53.720;10.014;2022-07-29T06:40:59;14.90;99.90
10070;DHT22;5074;53.720;10.014;2022-07-29T06:43:32;15.00;99.90
10070;DHT22;5074;53.720;10.014;2022-07-29T06:46:20;15.10;99.90
10070;DHT22;5074;53.720;10.014;2022-07-29T06:48:50;15.20;99.90
10070;DHT22;5074;53.720;10.014;2022-07-29T06:51:20;15.40;99.90
10070;DHT22;5074;53.720;10.014;2022-07-29T06:53:49;15.40;99.90
10070;DHT22;5074;53.720;10.014;2022-07-29T06:56:29;15.50;99.90
10070;DHT22;5074;53.720;10.014;2022-07-29T06:59:04;15.70;99.90
10070;DHT22;5074;53.720;10.014;2022-07-29T07:01:32;15.70;99.90
10070;DHT22;5074;53.720;10.014;2022-07-29T07:04:01;15.80;99.90
10070;DHT22;5074;53.720;10.014;2022-07-29T07:06:31;15.90;99.90
10070;DHT22;5074;53.720;10.014;2022-07-29T07:08:59;16.00;99.90
10070;DHT22;5074;53.720;10.014;2022-07-29T07:11:27;16.00;99.90
10070;DHT22;5074;53.720;10.014;2022-07-29T07:13:55;16.10;99.90
10070;DHT22;5074;53.720;10.014;2022-07-29T07:16:29;16.10;99.90
10070;DHT22;5074;53.720;10.014;2022-07-29T07:18:57;16.20;99.90
10070;DHT22;5074;53.720;10.014;2022-07-29T07:21:25;16.30;99.90
10070;DHT22;5074;53.720;10.014;2022-07-29T07:23:57;16.40;99.90
10070;DHT22;5074;53.720;10.014;2022-07-29T07:26:27;16.50;99.90
10070;DHT22;5074;53.720;10.014;2022-07-29T07:28:55;16.60;99.90
10070;DHT22;5074;53.720;10.014;2022-07-29T07:31:24;16.80;99.90
10070;DHT22;5074;53.720;10.014;2022-07-29T07:33:52;16.90;99.90
10070;DHT22;5074;53.720;10.014;2022-07-29T07:36:20;17.10;99.90
10070;DHT22;5074;53.720;10.014;2022-07-29T07:38:49;17.30;99.90
10070;DHT22;5074;53.720;10.014;2022-07-29T07:41:19;17.40;99.90
10070;DHT22;5074;53.720;10.014;2022-07-29T07:43:47;17.60;99.90
10070;DHT22;5074;53.720;10.014;2022-07-29T07:46:16;17.70;99.90
10070;DHT22;5074;53.720;10.014;2022-07-29T07:48:44;17.70;99.90
10070;DHT22;5074;53.720;10.014;2022-07-29T07:51:12;17.90;99.90
10070;DHT22;5074;53.720;10.014;2022-07-29T07:53:40;18.10;99.90
10070;DHT22;5074;53.720;10.014;2022-07-29T07:56:08;18.30;99.90
10070;DHT22;5074;53.720;10.014;2022-07-29T07:58:39;18.40;99.90
10070;DHT22;5074;53.720;10.014;2022-07-29T08:01:08;18.50;99.90
10070;DHT22;5074;53.720;10.014;2022-07-29T08:03:36;18.60;99.90
10070;DHT22;5074;53.720;10.014;2022-07-29T08:06:05;18.60;99.90
10070;DHT22;5074;53.720;10.014;2022-07-29T08:08:34;18.70;99.90
10070;DHT22;5074;53.720;10.014;2022-07-29T08:11:02;18.70;99.90
10070;DHT22;5074;53.720;10.014;2022-07-29T08:13:35;18.70;99.90
10070;DHT22;5074;53.720;10.014;2022-07-29T08:16:05;18.70;99.90
10070;DHT22;5074;53.720;10.014;2022-07-29T08:18:44;18.80;99.90
10070;DHT22;5074;53.720;10.014;2022-07-29T08:21:12;18.80;99.90
10070;DHT22;5074;53.720;10.014;2022-07-29T08:23:41;18.80;99.90
10070;DHT22;5074;53.720;10.014;2022-07-29T08:26:27;18.60;99.90
10070;DHT22;5074;53.720;10.014;2022-07-29T08:28:55;18.70;99.90
10070;DHT22;5074;53.720;10.014;2022-07-29T08:31:24;18.70;99.90
10070;DHT22;5074;53.720;10.014;2022-07-29T08:33:53;18.60;99.90
10070;DHT22;5074;53.720;10.014;2022-07-29T08:36:22;18.80;99.90
10070;DHT22;5074;53.720;10.014;2022-07-29T08:38:50;18.80;99.90
10070;DHT22;5074;53.720;10.014;2022-07-29T08:41:19;18.90;99.90
10070;DHT22;5074;53.720;10.014;2022-07-29T08:43:47;19.00;99.90
10070;DHT22;5074;53.720;10.014;2022-07-29T08:46:17;19.20;99.90
10070;DHT22;5074;53.720;10.014;2022-07-29T08:48:47;19.40;99.90
10070;DHT22;5074;53.720;10.014;2022-07-29T08:51:18;19.40;99.90
10070;DHT22;5074;53.720;10.014;2022-07-29T08:53:48;19.50;99.90
10070;DHT22;5074;53.720;10.014;2022-07-29T08:56:17;19.50;99.90
10070;DHT22;5074;53.720;10.014;2022-07-29T08:58:47;19.50;99.90
10070;DHT22;5074;53.720;10.014;2022-07-29T09:01:21;19.50;99.90
10070;DHT22;5074;53.720;10.014;2022-07-29T09:04:10;19.60;99.90
10070;DHT22;5074;53.720;10.014;2022-07-29T09:06:42;19.60;99.90
10070;DHT22;5074;53.720;10.014;2022-07-29T09:09:12;19.70;99.90
10070;DHT22;5074;53.720;10.014;2022-07-29T09:11:41;19.60;99.90
10070;DHT22;5074;53.720;10.014;2022-07-29T09:14:11;19.50;99.90
10070;DHT22;5074;53.720;10.014;2022-07-29T09:16:44;19.50;99.90
10070;DHT22;5074;53.720;10.014;2022-07-29T09:19:22;19.50;99.90
10070;DHT22;5074;53.720;10.014;2022-07-29T09:21:54;19.70;99.90
10070;DHT22;5074;53.720;10.014;2022-07-29T09:24:42;19.90;99.90
10070;DHT22;5074;53.720;10.014;2022-07-29T09:27:20;19.70;99.90
10070;DHT22;5074;53.720;10.014;2022-07-29T09:29:56;19.60;99.90
10070;DHT22;5074;53.720;10.014;2022-07-29T09:32:25;19.70;99.90
10070;DHT22;5074;53.720;10.014;2022-07-29T09:37:43;20.20;99.90
10070;DHT22;5074;53.720;10.014;2022-07-29T09:40:13;20.30;99.90
10070;DHT22;5074;53.720;10.014;2022-07-29T09:42:43;20.50;99.90
10070;DHT22;5074;53.720;10.014;2022-07-29T09:45:12;20.50;99.90
10070;DHT22;5074;53.720;10.014;2022-07-29T09:47:53;20.60;99.90
10070;DHT22;5074;53.720;10.014;2022-07-29T09:50:35;20.60;99.90
10070;DHT22;5074;53.720;10.014;2022-07-29T09:53:04;20.80;99.90
10070;DHT22;5074;53.720;10.014;2022-07-29T09:55:32;20.90;99.90
10070;DHT22;5074;53.720;10.014;2022-07-29T10:00:48;21.00;99.90
10070;DHT22;5074;53.720;10.014;2022-07-29T10:03:19;21.10;99.90
10070;DHT22;5074;53.720;10.014;2022-07-29T10:06:03;21.10;99.90
10070;DHT22;5074;53.720;10.014;2022-07-29T10:08:35;21.10;99.90
10070;DHT22;5074;53.720;10.014;2022-07-29T10:11:11;21.20;99.90
10070;DHT22;5074;53.720;10.014;2022-07-29T10:13:41;21.20;99.90
10070;DHT22;5074;53.720;10.014;2022-07-29T10:16:10;21.30;99.90
10070;DHT22;5074;53.720;10.014;2022-07-29T10:18:40;21.40;99.90
10070;DHT22;5074;53.720;10.014;2022-07-29T10:21:11;21.60;99.90
10070;DHT22;5074;53.720;10.014;2022-07-29T10:24:00;21.90;99.90
10070;DHT22;5074;53.720;10.014;2022-07-29T10:26:28;22.20;99.90
10070;DHT22;5074;53.720;10.014;2022-07-29T10:28:57;22.30;99.90
10070;DHT22;5074;53.720;10.014;2022-07-29T10:31:27;22.50;99.90
10070;DHT22;5074;53.720;10.014;2022-07-29T10:34:02;22.40;99.90
10070;DHT22;5074;53.720;10.014;2022-07-29T10:36:41;22.40;99.90
10070;DHT22;5074;53.720;10.014;2022-07-29T10:39:24;22.40;99.90
10070;DHT22;5074;53.720;10.014;2022-07-29T10:42:16;22.50;99.90
10070;DHT22;5074;53.720;10.014;2022-07-29T10:44:58;22.60;99.90
10070;DHT22;5074;53.720;10.014;2022-07-29T10:47:27;22.70;99.90
10070;DHT22;5074;53.720;10.014;2022-07-29T10:49:56;22.80;99.90
10070;DHT22;5074;53.720;10.014;2022-07-29T10:55:33;22.90;99.90
10070;DHT22;5074;53.720;10.014;2022-07-29T10:58:13;23.00;99.90
10070;DHT22;5074;53.720;10.014;2022-07-29T11:00:43;23.00;99.90
10070;DHT22;5074;53.720;10.014;2022-07-29T11:06:16;23.10;99.90
10070;DHT22;5074;53.720;10.014;2022-07-29T11:11:51;23.00;99.90
10070;DHT22;5074;53.720;10.014;2022-07-29T11:14:20;22.90;99.90
10070;DHT22;5074;53.720;10.014;2022-07-29T11:17:25;22.80;99.90
10070;DHT22;5074;53.720;10.014;2022-07-29T11:20:36;22.80;99.90
10070;DHT22;5074;53.720;10.014;2022-07-29T11:23:17;22.70;99.90
10070;DHT22;5074;53.720;10.014;2022-07-29T11:26:12;22.70;99.90
10070;DHT22;5074;53.720;10.014;2022-07-29T11:28:54;22.70;99.90
10070;DHT22;5074;53.720;10.014;2022-07-29T11:31:35;22.80;99.90
10070;DHT22;5074;53.720;10.014;2022-07-29T11:37:16;23.00;99.90
10070;DHT22;5074;53.720;10.014;2022-07-29T11:40:10;23.00;99.90
10070;DHT22;5074;53.720;10.014;2022-07-29T11:42:47;23.10;99.90
10070;DHT22;5074;53.720;10.014;2022-07-29T11:45:21;23.10;99.90
10070;DHT22;5074;53.720;10.014;2022-07-29T11:48:16;23.20;99.90
10070;DHT22;5074;53.720;10.014;2022-07-29T11:50:58;23.40;99.90
10070;DHT22;5074;53.720;10.014;2022-07-29T11:53:28;23.50;99.90
10070;DHT22;5074;53.720;10.014;2022-07-29T11:56:17;23.70;99.90
10070;DHT22;5074;53.720;10.014;2022-07-29T11:58:59;23.90;99.90
10070;DHT22;5074;53.720;10.014;2022-07-29T12:01:33;24.00;99.90
10070;DHT22;5074;53.720;10.014;2022-07-29T12:04:04;24.30;99.90
10070;DHT22;5074;53.720;10.014;2022-07-29T12:06:33;24.70;99.90
10070;DHT22;5074;53.720;10.014;2022-07-29T12:09:06;25.10;99.90
10070;DHT22;5074;53.720;10.014;2022-07-29T12:11:40;24.90;99.90
10070;DHT22;5074;53.720;10.014;2022-07-29T12:14:25;24.90;99.90
10070;DHT22;5074;53.720;10.014;2022-07-29T12:16:54;24.90;99.90
10070;DHT22;5074;53.720;10.014;2022-07-29T12:19:25;25.00;99.90
10070;DHT22;5074;53.720;10.014;2022-07-29T12:21:56;25.30;99.90
10070;DHT22;5074;53.720;10.014;2022-07-29T12:24:28;25.50;99.90
10070;DHT22;5074;53.720;10.014;2022-07-29T12:27:10;25.70;99.90
10070;DHT22;5074;53.720;10.014;2022-07-29T12:29:39;25.80;98.80
10070;DHT22;5074;53.720;10.014;2022-07-29T12:32:14;25.40;99.20
10070;DHT22;5074;53.720;10.014;2022-07-29T12:34:46;25.10;99.00
10070;DHT22;5074;53.720;10.014;2022-07-29T12:37:15;24.90;99.90
10070;DHT22;5074;53.720;10.014;2022-07-29T12:39:43;24.80;99.50
10070;DHT22;5074;53.720;10.014;2022-07-29T12:42:12;24.70;99.90
10070;DHT22;5074;53.720;10.014;2022-07-29T12:44:45;24.70;99.90
10070;DHT22;5074;53.720;10.014;2022-07-29T12:47:14;24.70;99.90
10070;DHT22;5074;53.720;10.014;2022-07-29T12:49:43;24.60;99.90
10070;DHT22;5074;53.720;10.014;2022-07-29T12:52:25;24.70;99.90
10070;DHT22;5074;53.720;10.014;2022-07-29T12:54:57;24.70;99.90
10070;DHT22;5074;53.720;10.014;2022-07-29T12:57:26;25.40;99.90
10070;DHT22;5074;53.720;10.014;2022-07-29T12:59:58;26.70;99.90
10070;DHT22;5074;53.720;10.014;2022-07-29T13:02:38;27.80;98.90
10070;DHT22;5074;53.720;10.014;2022-07-29T13:05:07;28.80;97.90
10070;DHT22;5074;53.720;10.014;2022-07-29T13:07:39;29.50;95.20
10070;DHT22;5074;53.720;10.014;2022-07-29T13:10:23;30.30;95.40
10070;DHT22;5074;53.720;10.014;2022-07-29T13:13:01;30.80;94.30
10070;DHT22;5074;53.720;10.014;2022-07-29T13:15:30;31.10;93.20
10070;DHT22;5074;53.720;10.014;2022-07-29T13:17:59;31.90;91.60
10070;DHT22;5074;53.720;10.014;2022-07-29T13:20:28;32.00;91.60
10070;DHT22;5074;53.720;10.014;2022-07-29T13:22:59;31.40;92.00
10070;DHT22;5074;53.720;10.014;2022-07-29T13:25:28;31.10;91.50
10070;DHT22;5074;53.720;10.014;2022-07-29T13:27:58;30.70;92.30
10070;DHT22;5074;53.720;10.014;2022-07-29T13:30:27;29.90;92.80
10070;DHT22;5074;53.720;10.014;2022-07-29T13:32:55;29.60;92.40
10070;DHT22;5074;53.720;10.014;2022-07-29T13:35:24;30.10;93.10
10070;DHT22;5074;53.720;10.014;2022-07-29T13:37:56;30.60;92.00
10070;DHT22;5074;53.720;10.014;2022-07-29T13:40:25;31.00;91.30
10070;DHT22;5074;53.720;10.014;2022-07-29T13:42:55;31.20;91.00
10070;DHT22;5074;53.720;10.014;2022-07-29T13:45:23;30.90;91.00
10070;DHT22;5074;53.720;10.014;2022-07-29T13:47:54;30.70;91.50
10070;DHT22;5074;53.720;10.014;2022-07-29T13:50:23;29.90;91.70
10070;DHT22;5074;53.720;10.014;2022-07-29T13:52:51;29.90;91.40
10070;DHT22;5074;53.720;10.014;2022-07-29T13:55:19;30.50;90.90
10070;DHT22;5074;53.720;10.014;2022-07-29T13:57:49;31.00;90.80
10070;DHT22;5074;53.720;10.014;2022-07-29T14:00:17;30.80;90.50
10070;DHT22;5074;53.720;10.014;2022-07-29T14:02:45;31.00;90.20
10070;DHT22;5074;53.720;10.014;2022-07-29T14:05:14;30.30;90.60
10070;DHT22;5074;53.720;10.014;2022-07-29T14:07:42;29.70;91.40
10070;DHT22;5074;53.720;10.014;2022-07-29T14:10:10;29.40;91.10
10070;DHT22;5074;53.720;10.014;2022-07-29T14:12:43;28.80;91.90
10070;DHT22;5074;53.720;10.014;2022-07-29T14:15:13;28.30;92.20
10070;DHT22;5074;53.720;10.014;2022-07-29T14:17:41;28.20;92.20
10070;DHT22;5074;53.720;10.014;2022-07-29T14:20:09;28.30;92.70
10070;DHT22;5074;53.720;10.014;2022-07-29T14:22:37;28.40;92.40
10070;DHT22;5074;53.720;10.014;2022-07-29T14:25:08;28.70;92.10
10070;DHT22;5074;53.720;10.014;2022-07-29T14:27:40;28.80;92.50
10070;DHT22;5074;53.720;10.014;2022-07-29T14:30:09;28.80;92.60
10070;DHT22;5074;53.720;10.014;2022-07-29T14:32:39;29.30;92.20
10070;DHT22;5074;53.720;10.014;2022-07-29T14:35:07;29.80;91.30
10070;DHT22;5074;53.720;10.014;2022-07-29T14:37:36;30.60;91.80
10070;DHT22;5074;53.720;10.014;2022-07-29T14:40:06;31.80;90.50
10070;DHT22;5074;53.720;10.014;2022-07-29T14:42:35;32.00;89.40
10070;DHT22;5074;53.720;10.014;2022-07-29T14:45:04;31.30;90.10
10070;DHT22;5074;53.720;10.014;2022-07-29T14:47:33;31.00;88.80
10070;DHT22;5074;53.720;10.014;2022-07-29T14:50:03;29.70;90.70
10070;DHT22;5074;53.720;10.014;2022-07-29T14:52:33;28.50;91.60
10070;DHT22;5074;53.720;10.014;2022-07-29T14:55:01;28.20;92.10
10070;DHT22;5074;53.720;10.014;2022-07-29T14:57:41;27.30;92.70
10070;DHT22;5074;53.720;10.014;2022-07-29T15:00:10;26.80;93.20
10070;DHT22;5074;53.720;10.014;2022-07-29T15:02:38;26.20;93.70
10070;DHT22;5074;53.720;10.014;2022-07-29T15:05:28;26.00;94.40
10070;DHT22;5074;53.720;10.014;2022-07-29T15:07:56;26.00;94.00
10070;DHT22;5074;53.720;10.014;2022-07-29T15:10:25;26.10;94.70
10070;DHT22;5074;53.720;10.014;2022-07-29T15:12:53;26.50;94.30
10070;DHT22;5074;53.720;10.014;2022-07-29T15:15:22;26.80;93.70
10070;DHT22;5074;53.720;10.014;2022-07-29T15:17:50;27.40;93.90
10070;DHT22;5074;53.720;10.014;2022-07-29T15:20:18;28.40;93.30
10070;DHT22;5074;53.720;10.014;2022-07-29T15:22:48;29.00;92.20
10070;DHT22;5074;53.720;10.014;2022-07-29T15:25:17;29.40;91.70
10070;DHT22;5074;53.720;10.014;2022-07-29T15:27:45;29.90;91.70
10070;DHT22;5074;53.720;10.014;2022-07-29T15:30:17;30.10;91.40
10070;DHT22;5074;53.720;10.014;2022-07-29T15:33:00;30.70;91.10
10070;DHT22;5074;53.720;10.014;2022-07-29T15:35:28;31.00;90.30
10070;DHT22;5074;53.720;10.014;2022-07-29T15:37:58;31.40;90.20
10070;DHT22;5074;53.720;10.014;2022-07-29T15:40:26;30.60;90.80
10070;DHT22;5074;53.720;10.014;2022-07-29T15:42:55;30.20;91.00
10070;DHT22;5074;53.720;10.014;2022-07-29T15:45:24;30.00;90.90
10070;DHT22;5074;53.720;10.014;2022-07-29T15:47:57;29.80;91.30
10070;DHT22;5074;53.720;10.014;2022-07-29T15:50:25;30.50;90.70
10070;DHT22;5074;53.720;10.014;2022-07-29T15:52:53;30.20;90.40
10070;DHT22;5074;53.720;10.014;2022-07-29T15:55:23;29.40;91.40
10070;DHT22;5074;53.720;10.014;2022-07-29T15:57:51;28.80;91.50
10070;DHT22;5074;53.720;10.014;2022-07-29T16:00:25;28.80;92.10
10070;DHT22;5074;53.720;10.014;2022-07-29T16:02:54;28.50;92.30
10070;DHT22;5074;53.720;10.014;2022-07-29T16:05:22;27.90;92.60
10070;DHT22;5074;53.720;10.014;2022-07-29T16:07:50;27.40;92.90
10070;DHT22;5074;53.720;10.014;2022-07-29T16:10:18;26.40;94.10
10070;DHT22;5074;53.720;10.014;2022-07-29T16:12:48;25.80;94.50
10070;DHT22;5074;53.720;10.014;2022-07-29T16:15:16;25.40;95.10
10070;DHT22;5074;53.720;10.014;2022-07-29T16:17:44;25.10;95.70